Millrift, Pennsylvania
Current Conditions -  °F | °C
As of 11:53 AM on Saturday 25 Oct 2014 (Local Time) from KFWN Reporting Station
Few Clouds Few Clouds  
Wind Chill: 63°   Ceiling: Unl
Heat Index: 63°   Visibility: 10mi
Dew Point: 42°   Wind: 0mph
Humidity: 46%   Direction: NA
Pressure: 29.8"   Gusts: NA
Location:  41.41°N, 74.74°W
Report Text: KFWN 251553Z AUTO 00000KT 10SM FEW055 17/06 A2980 RMK AO2 SLP091 T01720056
Loading
Personal Weather Stations






























Interactive Weather Map
Tropical Storm Tracking
New forecast layout! Learn more

10-Day Weather Forecast

Advertisements
Track Severe Weather on mobile